createdAt,value
2016-12-20T00:00:05.518Z,0
2016-12-20T00:01:14.206Z,0
2016-12-20T00:02:22.926Z,0
2016-12-20T00:03:31.615Z,0
2016-12-20T00:04:40.300Z,0
2016-12-20T00:05:48.989Z,0
2016-12-20T00:06:57.676Z,0
2016-12-20T00:08:06.373Z,0
2016-12-20T00:09:15.058Z,0
2016-12-20T00:10:23.758Z,0
2016-12-20T00:11:32.454Z,0
2016-12-20T00:12:41.459Z,0
2016-12-20T00:13:50.146Z,0
2016-12-20T00:14:58.828Z,0
2016-12-20T00:16:07.524Z,0
2016-12-20T00:17:16.214Z,0
2016-12-20T00:18:24.902Z,0
2016-12-20T00:19:33.588Z,0
2016-12-20T00:20:42.282Z,0
2016-12-20T00:21:50.974Z,0
2016-12-20T00:22:59.663Z,0
2016-12-20T00:24:08.357Z,0
2016-12-20T00:25:17.042Z,0
2016-12-20T00:26:25.734Z,0
2016-12-20T00:27:34.746Z,0
2016-12-20T00:28:43.760Z,0
2016-12-20T00:29:52.453Z,0
2016-12-20T00:31:01.171Z,0
2016-12-20T00:32:09.856Z,0
2016-12-20T00:33:18.544Z,0
2016-12-20T00:34:27.233Z,0
2016-12-20T00:35:35.923Z,0
2016-12-20T00:36:44.615Z,0
2016-12-20T00:37:53.302Z,0
2016-12-20T00:39:01.988Z,0
2016-12-20T00:40:10.673Z,0
2016-12-20T00:41:19.363Z,0
2016-12-20T00:42:28.055Z,0
2016-12-20T00:43:36.739Z,0
2016-12-20T00:44:45.427Z,0
2016-12-20T00:45:54.144Z,0
2016-12-20T00:47:02.828Z,0
2016-12-20T00:48:11.513Z,0
2016-12-20T00:49:20.198Z,0
2016-12-20T00:50:28.887Z,0
2016-12-20T00:51:37.577Z,0
2016-12-20T00:52:46.270Z,0
2016-12-20T00:53:55.002Z,0
2016-12-20T00:55:03.706Z,0
2016-12-20T00:56:12.398Z,0
2016-12-20T00:57:21.120Z,0
2016-12-20T00:58:29.818Z,0
2016-12-20T00:59:38.504Z,0
2016-12-20T01:00:47.225Z,0
2016-12-20T01:01:55.909Z,0
2016-12-20T01:03:04.913Z,0
2016-12-20T01:04:13.599Z,0
2016-12-20T01:05:22.287Z,0
2016-12-20T01:06:30.973Z,0
2016-12-20T01:07:39.657Z,0
2016-12-20T01:08:48.344Z,0
2016-12-20T01:09:57.039Z,0
2016-12-20T01:11:05.731Z,0
2016-12-20T01:12:14.452Z,0
2016-12-20T01:13:23.173Z,0
2016-12-20T01:14:31.862Z,0
2016-12-20T01:15:40.551Z,0
2016-12-20T01:16:49.244Z,0
2016-12-20T01:17:57.933Z,0
2016-12-20T01:19:06.617Z,0
2016-12-20T01:20:15.301Z,0
2016-12-20T01:21:23.988Z,0
2016-12-20T01:22:32.669Z,0
2016-12-20T01:23:41.357Z,0
2016-12-20T01:24:50.042Z,0
2016-12-20T01:25:58.729Z,0
2016-12-20T01:27:07.421Z,0
2016-12-20T01:28:16.103Z,0
2016-12-20T01:29:24.792Z,0
2016-12-20T01:30:33.481Z,0
2016-12-20T01:31:42.199Z,0
2016-12-20T01:32:50.887Z,0
2016-12-20T01:33:59.575Z,0
2016-12-20T01:35:08.263Z,0
2016-12-20T01:36:16.952Z,0
2016-12-20T01:37:25.642Z,0
2016-12-20T01:38:34.332Z,0
2016-12-20T01:39:43.023Z,0
2016-12-20T01:40:51.710Z,0
2016-12-20T01:42:00.394Z,0
2016-12-20T01:43:09.081Z,0
2016-12-20T01:44:18.093Z,0
2016-12-20T01:45:26.787Z,0
2016-12-20T01:46:35.472Z,0
2016-12-20T01:47:44.160Z,0
2016-12-20T01:48:52.855Z,0
2016-12-20T01:50:01.540Z,0
2016-12-20T01:51:10.228Z,0
2016-12-20T01:52:18.920Z,0
2016-12-20T01:53:27.615Z,0
2016-12-20T01:54:36.306Z,0
2016-12-20T01:55:44.995Z,0
2016-12-20T01:56:53.688Z,0
2016-12-20T01:58:02.386Z,0
2016-12-20T01:59:11.078Z,0
2016-12-20T02:00:19.772Z,0
2016-12-20T02:01:28.456Z,0
2016-12-20T02:02:37.146Z,0
2016-12-20T02:03:45.835Z,0
2016-12-20T02:04:54.519Z,0
2016-12-20T02:06:03.213Z,0
2016-12-20T02:07:11.957Z,0
2016-12-20T02:08:20.646Z,0
2016-12-20T02:09:29.335Z,0
2016-12-20T02:10:38.026Z,0
2016-12-20T02:11:46.716Z,0
2016-12-20T02:12:55.406Z,0
2016-12-20T02:14:04.096Z,0
2016-12-20T02:15:12.781Z,0
2016-12-20T02:16:21.470Z,0
2016-12-20T02:17:30.158Z,0
2016-12-20T02:18:38.844Z,0
2016-12-20T02:19:47.573Z,0
2016-12-20T02:20:56.262Z,0
2016-12-20T02:22:04.955Z,0
2016-12-20T02:23:13.641Z,0
2016-12-20T02:24:22.330Z,0
2016-12-20T02:25:31.022Z,0
2016-12-20T02:26:39.708Z,0
2016-12-20T02:27:48.395Z,0
2016-12-20T02:28:57.091Z,0
2016-12-20T02:30:05.778Z,0
2016-12-20T02:31:14.459Z,0
2016-12-20T02:32:23.156Z,0
2016-12-20T02:33:31.853Z,0
2016-12-20T02:34:40.545Z,0
2016-12-20T02:35:49.243Z,0
2016-12-20T02:36:57.929Z,0
2016-12-20T02:38:06.931Z,0
2016-12-20T02:39:15.620Z,0
2016-12-20T02:40:24.634Z,0
2016-12-20T02:41:33.321Z,0
2016-12-20T02:42:42.330Z,0
2016-12-20T02:43:51.022Z,0
2016-12-20T02:44:59.714Z,0
2016-12-20T02:46:08.413Z,0
2016-12-20T02:47:17.105Z,0
2016-12-20T02:48:25.793Z,0
2016-12-20T02:49:34.480Z,0
2016-12-20T02:50:43.170Z,0
2016-12-20T02:51:51.866Z,0
2016-12-20T02:53:00.556Z,0
2016-12-20T02:54:09.250Z,0
2016-12-20T02:55:17.940Z,0
2016-12-20T02:56:26.625Z,0
2016-12-20T02:57:35.349Z,0
2016-12-20T02:58:44.036Z,0
2016-12-20T02:59:52.742Z,0
2016-12-20T03:01:01.430Z,0
2016-12-20T03:02:10.121Z,0
2016-12-20T03:03:18.808Z,0
2016-12-20T03:04:27.496Z,0
2016-12-20T03:05:36.184Z,0
2016-12-20T03:06:44.874Z,0
2016-12-20T03:07:53.593Z,0
2016-12-20T03:09:02.282Z,0
2016-12-20T03:10:11.118Z,0
2016-12-20T03:11:19.819Z,0
2016-12-20T03:12:28.512Z,0
2016-12-20T03:13:37.201Z,0
2016-12-20T03:14:45.888Z,0
2016-12-20T03:15:54.574Z,0
2016-12-20T03:17:03.275Z,0
2016-12-20T03:18:11.963Z,0
2016-12-20T03:19:20.653Z,0
2016-12-20T03:20:29.348Z,0
2016-12-20T03:21:38.039Z,0
2016-12-20T03:22:46.731Z,0
2016-12-20T03:23:55.424Z,0
2016-12-20T03:25:04.112Z,0
2016-12-20T03:26:13.149Z,0
2016-12-20T03:27:21.836Z,0
2016-12-20T03:28:30.525Z,0
2016-12-20T03:29:39.214Z,0
2016-12-20T03:30:47.898Z,0
2016-12-20T03:31:56.605Z,0
2016-12-20T03:33:05.295Z,0
2016-12-20T03:34:13.990Z,0
2016-12-20T03:35:22.678Z,0
2016-12-20T03:36:31.367Z,0
2016-12-20T03:37:40.054Z,0
2016-12-20T03:38:48.744Z,0
2016-12-20T03:39:57.471Z,0
2016-12-20T03:41:06.164Z,0
2016-12-20T03:42:14.853Z,0
2016-12-20T03:43:23.538Z,0
2016-12-20T03:44:32.232Z,0
2016-12-20T03:45:40.923Z,0
2016-12-20T03:46:49.620Z,0
2016-12-20T03:47:58.311Z,0
2016-12-20T03:49:07.029Z,0
2016-12-20T03:50:15.722Z,0
2016-12-20T03:51:24.414Z,0
2016-12-20T03:52:33.101Z,0
2016-12-20T03:53:41.824Z,0
2016-12-20T03:54:50.516Z,0
2016-12-20T03:55:59.205Z,0
2016-12-20T03:57:08.207Z,0
2016-12-20T03:58:16.898Z,0
2016-12-20T03:59:25.589Z,0
2016-12-20T04:00:34.293Z,0
2016-12-20T04:01:43.034Z,0
2016-12-20T04:02:51.720Z,0
2016-12-20T04:04:00.412Z,0
2016-12-20T04:05:09.109Z,0
2016-12-20T04:06:17.799Z,0
2016-12-20T04:07:26.491Z,0
2016-12-20T04:08:35.179Z,0
2016-12-20T04:09:43.873Z,0
2016-12-20T04:10:52.572Z,0
2016-12-20T04:12:01.264Z,0
2016-12-20T04:13:09.960Z,0
2016-12-20T04:14:18.651Z,0
2016-12-20T04:15:27.348Z,0
2016-12-20T04:16:36.040Z,0
2016-12-20T04:17:44.731Z,0
2016-12-20T04:18:53.455Z,0
2016-12-20T04:20:02.462Z,0
2016-12-20T04:21:11.153Z,0
2016-12-20T04:22:19.836Z,0
2016-12-20T04:23:28.529Z,0
2016-12-20T04:24:37.219Z,0
2016-12-20T04:25:45.906Z,0
2016-12-20T04:26:54.600Z,0
2016-12-20T04:28:03.290Z,0
2016-12-20T04:29:12.298Z,0
2016-12-20T04:30:20.989Z,0
2016-12-20T04:31:29.689Z,0
2016-12-20T04:32:38.374Z,0
2016-12-20T04:33:47.077Z,0
2016-12-20T04:34:55.773Z,0
2016-12-20T04:36:04.778Z,0
2016-12-20T04:37:13.465Z,0
2016-12-20T04:38:22.152Z,0
2016-12-20T04:39:31.157Z,0
2016-12-20T04:40:39.851Z,0
2016-12-20T04:41:48.547Z,0
2016-12-20T04:42:57.242Z,0
2016-12-20T04:44:05.933Z,0
2016-12-20T04:45:14.618Z,0
2016-12-20T04:46:23.303Z,0
2016-12-20T04:47:31.993Z,0
2016-12-20T04:48:40.683Z,0
2016-12-20T04:49:49.377Z,0
2016-12-20T04:50:58.068Z,0
2016-12-20T04:52:06.765Z,0
2016-12-20T04:53:15.457Z,0
2016-12-20T04:54:24.142Z,0
2016-12-20T04:55:32.831Z,0
2016-12-20T04:56:41.533Z,0
2016-12-20T04:57:50.219Z,0
2016-12-20T04:58:58.916Z,0
2016-12-20T05:00:07.609Z,0
2016-12-20T05:01:16.303Z,0
2016-12-20T05:02:24.990Z,0
2016-12-20T05:03:33.676Z,0
2016-12-20T05:04:42.365Z,0
2016-12-20T05:05:51.051Z,0
2016-12-20T05:06:59.737Z,0
2016-12-20T05:08:08.425Z,0
2016-12-20T05:09:17.114Z,0
2016-12-20T05:10:25.804Z,0
2016-12-20T05:11:34.491Z,0
2016-12-20T05:12:43.181Z,0
2016-12-20T05:13:51.867Z,0
2016-12-20T05:15:00.562Z,0
2016-12-20T05:16:09.250Z,0
2016-12-20T05:17:17.940Z,0
2016-12-20T05:18:26.633Z,0
2016-12-20T05:19:35.356Z,0
2016-12-20T05:20:44.048Z,0
2016-12-20T05:21:52.735Z,0
2016-12-20T05:23:01.425Z,0
2016-12-20T05:24:10.119Z,0
2016-12-20T05:25:18.805Z,0
2016-12-20T05:26:27.489Z,0
2016-12-20T05:27:36.210Z,0
2016-12-20T05:28:44.900Z,0
2016-12-20T05:29:53.590Z,0
2016-12-20T05:31:02.286Z,0
2016-12-20T05:32:10.974Z,0
2016-12-20T05:33:19.660Z,0
2016-12-20T05:34:28.349Z,0
2016-12-20T05:35:37.039Z,0
2016-12-20T05:36:45.736Z,0
2016-12-20T05:37:54.431Z,0
2016-12-20T05:39:03.435Z,0
2016-12-20T05:40:12.129Z,0
2016-12-20T05:41:20.820Z,0
2016-12-20T05:42:29.505Z,0
2016-12-20T05:43:38.222Z,0
2016-12-20T05:44:46.914Z,0
2016-12-20T05:45:55.600Z,0
2016-12-20T05:47:04.288Z,0
2016-12-20T05:48:12.980Z,0
2016-12-20T05:49:21.674Z,0
2016-12-20T05:50:30.390Z,0
2016-12-20T05:51:39.085Z,0
2016-12-20T05:52:47.775Z,0
2016-12-20T05:53:56.500Z,0
2016-12-20T05:55:05.190Z,0
2016-12-20T05:56:13.916Z,0
2016-12-20T05:57:22.609Z,0
2016-12-20T05:58:31.324Z,0
2016-12-20T05:59:40.017Z,0
2016-12-20T06:00:48.709Z,0
2016-12-20T06:01:57.401Z,0
2016-12-20T06:03:06.089Z,0
2016-12-20T06:04:14.779Z,0
2016-12-20T06:05:23.789Z,0
2016-12-20T06:06:32.480Z,0
2016-12-20T06:07:41.168Z,0
2016-12-20T06:08:49.866Z,0
2016-12-20T06:09:58.556Z,0
2016-12-20T06:11:07.248Z,0
2016-12-20T06:12:15.939Z,0
2016-12-20T06:13:24.633Z,0
2016-12-20T06:14:33.325Z,0
2016-12-20T06:15:42.010Z,0
2016-12-20T06:16:50.708Z,0
2016-12-20T06:17:59.395Z,0
2016-12-20T06:19:08.406Z,0
2016-12-20T06:20:17.096Z,0
2016-12-20T06:21:25.782Z,0
2016-12-20T06:22:34.470Z,0
2016-12-20T06:23:43.158Z,0
2016-12-20T06:24:51.852Z,0
2016-12-20T06:26:00.541Z,0
2016-12-20T06:27:09.230Z,0
2016-12-20T06:28:17.917Z,0
2016-12-20T06:29:26.606Z,0
2016-12-20T06:30:35.297Z,0
2016-12-20T06:31:43.996Z,0
2016-12-20T06:32:52.687Z,0
2016-12-20T06:34:01.373Z,0
2016-12-20T06:35:10.069Z,0
2016-12-20T06:36:18.758Z,0
2016-12-20T06:37:27.447Z,0
2016-12-20T06:38:36.135Z,0
2016-12-20T06:39:44.826Z,0
2016-12-20T06:40:53.515Z,0
2016-12-20T06:42:02.209Z,0
2016-12-20T06:43:10.925Z,0
2016-12-20T06:44:19.611Z,0
2016-12-20T06:45:28.300Z,0
2016-12-20T06:46:36.986Z,0
2016-12-20T06:47:45.676Z,0
2016-12-20T06:48:54.381Z,0
2016-12-20T06:50:03.382Z,0
2016-12-20T06:51:12.067Z,0
2016-12-20T06:52:20.761Z,0
2016-12-20T06:53:29.449Z,0
2016-12-20T06:54:38.138Z,0
2016-12-20T06:55:46.832Z,0
2016-12-20T06:56:55.523Z,0
2016-12-20T06:58:04.213Z,0
2016-12-20T06:59:12.908Z,0
2016-12-20T07:00:21.632Z,0
2016-12-20T07:01:30.330Z,0
2016-12-20T07:02:39.014Z,0
2016-12-20T07:03:47.723Z,0
2016-12-20T07:04:56.805Z,0
2016-12-20T07:06:05.495Z,0
2016-12-20T07:07:14.182Z,0
2016-12-20T07:08:22.871Z,0
2016-12-20T07:09:31.561Z,0
2016-12-20T07:10:40.251Z,0
2016-12-20T07:11:48.938Z,0
2016-12-20T07:12:57.633Z,0
2016-12-20T07:14:06.321Z,0
2016-12-20T07:15:15.011Z,0
2016-12-20T07:16:23.704Z,0
2016-12-20T07:17:32.396Z,0
2016-12-20T07:18:41.080Z,0
2016-12-20T07:19:49.804Z,0
2016-12-20T07:20:58.495Z,0
2016-12-20T07:22:07.500Z,0
2016-12-20T07:23:16.191Z,0
2016-12-20T07:24:24.891Z,0
2016-12-20T07:25:33.598Z,4
2016-12-20T07:26:42.291Z,4
2016-12-20T07:27:50.980Z,0
2016-12-20T07:28:59.670Z,0
2016-12-20T07:30:08.362Z,4
2016-12-20T07:31:17.050Z,4
2016-12-20T07:32:25.782Z,0
2016-12-20T07:33:34.470Z,4
2016-12-20T07:34:43.162Z,4
2016-12-20T07:35:51.847Z,0
2016-12-20T07:37:00.550Z,4
2016-12-20T07:38:09.242Z,4
2016-12-20T07:39:17.929Z,4
2016-12-20T07:40:26.620Z,4
2016-12-20T07:41:35.310Z,8
2016-12-20T07:42:44.312Z,8
2016-12-20T07:43:53.005Z,12
2016-12-20T07:45:01.691Z,12
2016-12-20T07:46:10.395Z,12
2016-12-20T07:47:19.085Z,12
2016-12-20T07:48:27.772Z,16
2016-12-20T07:49:36.466Z,16
2016-12-20T07:50:45.152Z,20
2016-12-20T07:51:53.851Z,20
2016-12-20T07:53:02.538Z,24
2016-12-20T07:54:11.229Z,28
2016-12-20T07:55:19.919Z,28
2016-12-20T07:56:28.609Z,28
2016-12-20T07:57:37.304Z,32
2016-12-20T07:58:45.990Z,40
2016-12-20T07:59:54.677Z,40
2016-12-20T08:01:03.363Z,44
2016-12-20T08:02:12.058Z,48
2016-12-20T08:03:20.749Z,52
2016-12-20T08:04:29.457Z,60
2016-12-20T08:05:38.142Z,60
2016-12-20T08:06:46.826Z,68
2016-12-20T08:07:55.516Z,68
2016-12-20T08:09:04.204Z,76
2016-12-20T08:10:12.898Z,80
2016-12-20T08:11:21.586Z,88
2016-12-20T08:12:30.280Z,96
2016-12-20T08:13:38.967Z,100
2016-12-20T08:14:47.658Z,108
2016-12-20T08:15:56.348Z,116
2016-12-20T08:17:05.042Z,124
2016-12-20T08:18:13.731Z,132
2016-12-20T08:19:22.416Z,136
2016-12-20T08:20:31.100Z,140
2016-12-20T08:21:39.795Z,144
2016-12-20T08:22:48.479Z,144
2016-12-20T08:23:57.170Z,152
2016-12-20T08:25:06.170Z,164
2016-12-20T08:26:14.882Z,172
2016-12-20T08:27:23.572Z,184
2016-12-20T08:28:32.263Z,192
2016-12-20T08:29:41.300Z,200
2016-12-20T08:30:50.022Z,212
2016-12-20T08:31:58.709Z,220
2016-12-20T08:33:07.401Z,232
2016-12-20T08:34:16.085Z,244
2016-12-20T08:35:24.775Z,264
2016-12-20T08:36:33.812Z,280
2016-12-20T08:37:42.503Z,292
2016-12-20T08:38:51.196Z,312
2016-12-20T08:39:59.884Z,324
2016-12-20T08:41:08.579Z,340
2016-12-20T08:42:17.296Z,352
2016-12-20T08:43:25.983Z,368
2016-12-20T08:44:34.680Z,380
2016-12-20T08:45:43.708Z,396
2016-12-20T08:46:52.706Z,412
2016-12-20T08:48:01.399Z,432
2016-12-20T08:49:10.124Z,448
2016-12-20T08:50:18.813Z,468
2016-12-20T08:51:27.505Z,488
2016-12-20T08:52:36.192Z,524
2016-12-20T08:53:44.886Z,560
2016-12-20T08:54:53.573Z,592
2016-12-20T08:56:02.262Z,656
2016-12-20T08:57:10.955Z,672
2016-12-20T08:58:19.639Z,672
2016-12-20T08:59:28.366Z,704
2016-12-20T09:00:37.053Z,716
2016-12-20T09:01:45.738Z,700
2016-12-20T09:02:54.428Z,704
2016-12-20T09:04:03.115Z,684
2016-12-20T09:05:11.815Z,676
2016-12-20T09:06:20.505Z,704
2016-12-20T09:07:29.198Z,708
2016-12-20T09:08:37.883Z,732
2016-12-20T09:09:46.576Z,768
2016-12-20T09:10:55.274Z,776
2016-12-20T09:12:03.966Z,808
2016-12-20T09:13:12.649Z,804
2016-12-20T09:14:21.343Z,828
2016-12-20T09:15:30.032Z,840
2016-12-20T09:16:38.723Z,868
2016-12-20T09:17:47.415Z,828
2016-12-20T09:18:56.105Z,856
2016-12-20T09:20:05.112Z,868
2016-12-20T09:21:13.801Z,848
2016-12-20T09:22:22.489Z,860
2016-12-20T09:23:31.175Z,904
2016-12-20T09:24:39.867Z,948
2016-12-20T09:25:48.554Z,1028
2016-12-20T09:26:57.241Z,1112
2016-12-20T09:28:05.950Z,1164
2016-12-20T09:29:14.647Z,1168
2016-12-20T09:30:23.337Z,1152
2016-12-20T09:31:32.024Z,1148
2016-12-20T09:32:40.746Z,1020
2016-12-20T09:35:05.594Z,988
2016-12-20T09:36:14.284Z,1000
2016-12-20T09:37:23.007Z,980
2016-12-20T09:38:31.699Z,972
2016-12-20T09:39:40.390Z,968
2016-12-20T09:40:49.082Z,944
2016-12-20T09:41:57.772Z,940
2016-12-20T09:43:06.459Z,968
2016-12-20T09:44:15.148Z,980
2016-12-20T09:45:23.834Z,1012
2016-12-20T09:46:32.537Z,1056
2016-12-20T09:47:41.222Z,1124
2016-12-20T09:48:49.917Z,1220
2016-12-20T09:49:58.606Z,1360
2016-12-20T09:51:07.297Z,1460
2016-12-20T09:52:15.990Z,1540
2016-12-20T09:53:24.676Z,1600
2016-12-20T09:54:33.359Z,1628
2016-12-20T09:55:42.051Z,1648
2016-12-20T09:56:50.744Z,1680
2016-12-20T09:57:59.465Z,1672
2016-12-20T09:59:08.186Z,1708
2016-12-20T10:00:16.875Z,1844
2016-12-20T10:01:25.576Z,1856
2016-12-20T10:02:34.269Z,1896
2016-12-20T10:03:42.963Z,1816
2016-12-20T10:04:51.654Z,1760
2016-12-20T10:06:00.345Z,1644
2016-12-20T10:07:09.043Z,1512
2016-12-20T10:08:17.760Z,1400
2016-12-20T10:09:26.506Z,1392
2016-12-20T10:10:35.192Z,1468
2016-12-20T10:11:43.880Z,1344
2016-12-20T10:12:52.570Z,1348
2016-12-20T10:14:01.261Z,1376
2016-12-20T10:15:10.052Z,1356
2016-12-20T10:16:18.740Z,1320
2016-12-20T10:17:27.455Z,1348
2016-12-20T10:18:36.149Z,1392
2016-12-20T10:19:44.831Z,1480
2016-12-20T10:20:53.518Z,1488
2016-12-20T10:22:02.211Z,1536
2016-12-20T10:23:10.906Z,1732
2016-12-20T10:24:19.604Z,2044
2016-12-20T10:25:28.295Z,1816
2016-12-20T10:26:36.979Z,1644
2016-12-20T10:27:45.671Z,1532
2016-12-20T10:28:54.358Z,1496
2016-12-20T10:30:03.049Z,1492
2016-12-20T10:31:11.738Z,1512
2016-12-20T10:32:20.430Z,1520
2016-12-20T10:33:29.124Z,1488
2016-12-20T10:34:37.814Z,1484
2016-12-20T10:35:46.500Z,1468
2016-12-20T10:36:55.189Z,1472
2016-12-20T10:38:03.881Z,1456
2016-12-20T10:39:12.573Z,1452
2016-12-20T10:40:21.264Z,1432
2016-12-20T10:41:29.952Z,1424
2016-12-20T10:42:38.639Z,1428
2016-12-20T10:43:47.325Z,1436
2016-12-20T10:44:56.011Z,1444
2016-12-20T10:46:04.697Z,1468
2016-12-20T10:47:13.392Z,1544
2016-12-20T10:48:22.079Z,1624
2016-12-20T10:49:30.768Z,1648
2016-12-20T10:50:39.480Z,1656
2016-12-20T10:51:48.170Z,1708
2016-12-20T10:52:56.859Z,1808
2016-12-20T10:54:05.555Z,1968
2016-12-20T10:55:20.222Z,2100
2016-12-20T10:56:28.911Z,2212
2016-12-20T10:57:37.602Z,2316
2016-12-20T10:58:46.287Z,2488
2016-12-20T10:59:54.980Z,2936
2016-12-20T11:01:03.674Z,3228
2016-12-20T11:02:12.362Z,3564
2016-12-20T11:03:21.048Z,3936
2016-12-20T11:04:29.748Z,3776
2016-12-20T11:05:38.432Z,3672
2016-12-20T11:06:47.122Z,3704
2016-12-20T11:07:55.821Z,3544
2016-12-20T11:09:04.512Z,3716
2016-12-20T11:10:13.514Z,3336
2016-12-20T11:11:22.200Z,3344
2016-12-20T11:12:30.891Z,3444
2016-12-20T11:13:39.579Z,3508
2016-12-20T11:14:48.263Z,3556
2016-12-20T11:15:56.960Z,3460
2016-12-20T11:17:05.649Z,3172
2016-12-20T11:18:14.335Z,3220
2016-12-20T11:19:23.026Z,2752
2016-12-20T11:20:31.728Z,3252
2016-12-20T11:21:40.418Z,3008
2016-12-20T11:22:49.112Z,2120
2016-12-20T11:23:57.809Z,2168
2016-12-20T11:25:06.498Z,2160
2016-12-20T11:26:15.184Z,2116
2016-12-20T11:27:23.878Z,2024
2016-12-20T11:28:32.568Z,1988
2016-12-20T11:29:41.268Z,1972
2016-12-20T11:30:49.955Z,1972
2016-12-20T11:31:58.645Z,1940
2016-12-20T11:33:07.343Z,1944
2016-12-20T11:34:16.038Z,2044
2016-12-20T11:35:24.725Z,2208
2016-12-20T11:36:33.424Z,2332
2016-12-20T11:37:42.111Z,2392
2016-12-20T11:38:50.802Z,2452
2016-12-20T11:39:59.492Z,2564
2016-12-20T11:41:08.212Z,2676
2016-12-20T11:42:16.900Z,2620
2016-12-20T11:43:25.592Z,2684
2016-12-20T11:44:34.281Z,2816
2016-12-20T11:45:42.965Z,2824
2016-12-20T11:46:51.659Z,2772
2016-12-20T11:48:00.350Z,2468
2016-12-20T11:49:09.043Z,2236
2016-12-20T11:50:17.730Z,2208
2016-12-20T11:51:26.425Z,2432
2016-12-20T11:52:35.113Z,2444
2016-12-20T11:53:43.806Z,2612
2016-12-20T11:54:52.505Z,2332
2016-12-20T11:56:01.207Z,2172
2016-12-20T11:57:09.898Z,2424
2016-12-20T11:58:18.593Z,2152
2016-12-20T11:59:27.281Z,2356
2016-12-20T12:00:35.971Z,2404
2016-12-20T12:01:44.717Z,2388
2016-12-20T12:02:53.410Z,2372
2016-12-20T12:04:02.099Z,2072
2016-12-20T12:05:10.794Z,1976
2016-12-20T12:06:19.487Z,2140
2016-12-20T12:07:28.173Z,2132
2016-12-20T12:08:36.872Z,2132
2016-12-20T12:09:45.567Z,2112
2016-12-20T12:10:54.257Z,2072
2016-12-20T12:12:02.955Z,2008
2016-12-20T12:13:11.641Z,1952
2016-12-20T12:14:20.338Z,1948
2016-12-20T12:15:29.031Z,2020
2016-12-20T12:16:37.720Z,1952
2016-12-20T12:17:46.454Z,1940
2016-12-20T12:18:55.143Z,1908
2016-12-20T12:20:04.156Z,1760
2016-12-20T12:21:12.853Z,1772
2016-12-20T12:22:21.545Z,1884
2016-12-20T12:23:30.242Z,1816
2016-12-20T12:24:38.933Z,1640
2016-12-20T12:25:47.626Z,1620
2016-12-20T12:26:56.313Z,1748
2016-12-20T12:28:05.002Z,1784
2016-12-20T12:29:13.702Z,1844
2016-12-20T12:30:22.392Z,1800
2016-12-20T12:31:31.081Z,1808
2016-12-20T12:32:39.772Z,1700
2016-12-20T12:33:48.458Z,1728
2016-12-20T12:34:57.147Z,1652
2016-12-20T12:36:05.837Z,1644
2016-12-20T12:37:14.527Z,1676
2016-12-20T12:38:23.227Z,1612
2016-12-20T12:39:31.912Z,1564
2016-12-20T12:40:40.603Z,1528
2016-12-20T12:41:49.292Z,1496
2016-12-20T12:42:57.981Z,1464
2016-12-20T12:44:06.682Z,1392
2016-12-20T12:45:15.367Z,1412
2016-12-20T12:46:24.055Z,1436
2016-12-20T12:47:32.749Z,1436
2016-12-20T12:48:41.438Z,1436
2016-12-20T12:49:50.125Z,1348
2016-12-20T12:50:58.815Z,1408
2016-12-20T12:52:07.504Z,1392
2016-12-20T12:53:16.195Z,1316
2016-12-20T12:54:24.886Z,1352
2016-12-20T12:55:33.610Z,1412
2016-12-20T12:56:42.305Z,1324
2016-12-20T12:57:50.999Z,1336
2016-12-20T12:58:59.693Z,1432
2016-12-20T13:00:08.384Z,1284
2016-12-20T13:01:17.073Z,1244
2016-12-20T13:02:25.787Z,1180
2016-12-20T13:03:34.473Z,1120
2016-12-20T13:04:43.163Z,1008
2016-12-20T13:05:51.846Z,936
2016-12-20T13:07:00.847Z,936
2016-12-20T13:08:09.545Z,900
2016-12-20T13:09:18.276Z,864
2016-12-20T13:10:26.969Z,836
2016-12-20T13:11:35.676Z,844
2016-12-20T13:12:44.362Z,912
2016-12-20T13:13:53.049Z,864
2016-12-20T13:15:01.741Z,808
2016-12-20T13:16:10.435Z,832
2016-12-20T13:17:19.127Z,852
2016-12-20T13:18:27.833Z,828
2016-12-20T13:19:36.522Z,860
2016-12-20T13:20:45.215Z,884
2016-12-20T13:21:53.907Z,932
2016-12-20T13:23:02.606Z,840
2016-12-20T13:24:11.614Z,776
2016-12-20T13:25:20.308Z,764
2016-12-20T13:26:29.315Z,808
2016-12-20T13:27:38.033Z,772
2016-12-20T13:28:46.720Z,688
2016-12-20T13:29:55.414Z,672
2016-12-20T13:31:04.108Z,664
2016-12-20T13:32:12.799Z,624
2016-12-20T13:33:21.493Z,600
2016-12-20T13:34:30.189Z,604
2016-12-20T13:35:38.879Z,552
2016-12-20T13:36:47.567Z,544
2016-12-20T13:37:56.256Z,528
2016-12-20T13:39:04.942Z,496
2016-12-20T13:40:13.634Z,464
2016-12-20T13:41:22.328Z,456
2016-12-20T13:42:31.017Z,436
2016-12-20T13:43:39.709Z,416
2016-12-20T13:44:48.404Z,412
2016-12-20T13:45:57.098Z,388
2016-12-20T13:47:05.794Z,376
2016-12-20T13:48:14.482Z,364
2016-12-20T13:49:23.169Z,352
2016-12-20T13:50:31.858Z,328
2016-12-20T13:51:40.552Z,316
2016-12-20T13:52:49.239Z,304
2016-12-20T13:53:57.938Z,288
2016-12-20T13:55:06.630Z,280
2016-12-20T13:56:15.319Z,260
2016-12-20T13:57:24.011Z,244
2016-12-20T13:58:32.701Z,236
2016-12-20T13:59:41.390Z,224
2016-12-20T14:00:50.084Z,204
2016-12-20T14:01:58.782Z,196
2016-12-20T14:03:07.477Z,192
2016-12-20T14:04:16.167Z,180
2016-12-20T14:05:24.864Z,168
2016-12-20T14:06:33.555Z,156
2016-12-20T14:07:42.242Z,148
2016-12-20T14:08:50.943Z,148
2016-12-20T14:09:59.636Z,132
2016-12-20T14:11:08.323Z,124
2016-12-20T14:12:17.012Z,128
2016-12-20T14:13:25.703Z,116
2016-12-20T14:14:34.390Z,112
2016-12-20T14:15:43.112Z,104
2016-12-20T14:16:51.863Z,96
2016-12-20T14:18:00.905Z,84
2016-12-20T14:19:09.591Z,76
2016-12-20T14:20:18.290Z,72
2016-12-20T14:21:26.981Z,68
2016-12-20T14:22:35.672Z,60
2016-12-20T14:23:44.363Z,56
2016-12-20T14:24:53.052Z,52
2016-12-20T14:26:01.745Z,48
2016-12-20T14:27:10.439Z,44
2016-12-20T14:28:19.136Z,40
2016-12-20T14:29:27.828Z,36
2016-12-20T14:30:36.514Z,32
2016-12-20T14:31:45.201Z,28
2016-12-20T14:32:53.891Z,28
2016-12-20T14:34:02.584Z,24
2016-12-20T14:35:11.275Z,24
2016-12-20T14:36:19.959Z,20
2016-12-20T14:37:28.653Z,20
2016-12-20T14:38:37.352Z,12
2016-12-20T14:39:46.050Z,16
2016-12-20T14:40:54.743Z,12
2016-12-20T14:42:03.434Z,12
2016-12-20T14:43:12.131Z,8
2016-12-20T14:44:20.874Z,8
2016-12-20T14:45:29.559Z,4
2016-12-20T14:46:38.251Z,8
2016-12-20T14:47:46.947Z,4
2016-12-20T14:48:55.641Z,4
2016-12-20T14:50:04.683Z,4
2016-12-20T14:51:13.373Z,0
2016-12-20T14:52:22.068Z,4
2016-12-20T14:53:30.766Z,4
2016-12-20T14:54:39.764Z,0
2016-12-20T14:55:48.605Z,4
2016-12-20T14:56:57.300Z,4
2016-12-20T14:58:05.993Z,4
2016-12-20T14:59:14.687Z,4
2016-12-20T15:00:23.374Z,0
2016-12-20T15:01:32.064Z,0
2016-12-20T15:02:40.777Z,0
2016-12-20T15:03:49.471Z,0
2016-12-20T15:04:58.474Z,0
2016-12-20T15:06:07.172Z,0
2016-12-20T15:07:15.864Z,0
2016-12-20T15:08:24.552Z,0
2016-12-20T15:09:33.241Z,0
2016-12-20T15:10:41.927Z,0
2016-12-20T15:11:50.626Z,0
2016-12-20T15:12:59.318Z,0
2016-12-20T15:14:08.010Z,0
2016-12-20T15:15:16.709Z,0
2016-12-20T15:16:25.395Z,0
2016-12-20T15:17:34.088Z,0
2016-12-20T15:18:42.778Z,0
2016-12-20T15:19:51.465Z,0
2016-12-20T15:21:00.151Z,0
2016-12-20T15:22:08.847Z,0
2016-12-20T15:23:17.855Z,0
2016-12-20T15:24:26.540Z,0
2016-12-20T15:25:35.238Z,0
2016-12-20T15:26:43.985Z,0
2016-12-20T15:27:52.679Z,0
2016-12-20T15:29:01.370Z,0
2016-12-20T15:30:10.067Z,0
2016-12-20T15:31:18.755Z,0
2016-12-20T15:32:27.446Z,0
2016-12-20T15:33:36.135Z,0
2016-12-20T15:34:44.826Z,0
2016-12-20T15:35:53.520Z,0
2016-12-20T15:37:02.212Z,0
2016-12-20T15:38:10.903Z,0
2016-12-20T15:39:19.600Z,0
2016-12-20T15:40:28.293Z,0
2016-12-20T15:41:36.988Z,0
2016-12-20T15:42:45.684Z,0
2016-12-20T15:43:54.379Z,0
2016-12-20T15:45:03.079Z,0
2016-12-20T15:46:11.771Z,0
2016-12-20T15:47:20.459Z,0
2016-12-20T15:48:29.154Z,0
2016-12-20T15:49:37.847Z,0
2016-12-20T15:50:46.537Z,0
2016-12-20T15:51:55.228Z,0
2016-12-20T15:53:03.918Z,0
2016-12-20T15:54:12.612Z,0
2016-12-20T15:55:21.304Z,0
2016-12-20T15:56:29.999Z,0
2016-12-20T15:57:38.688Z,0
2016-12-20T15:58:47.375Z,0
2016-12-20T15:59:56.097Z,0
2016-12-20T16:01:04.791Z,0
2016-12-20T16:02:13.483Z,0
2016-12-20T16:03:22.174Z,0
2016-12-20T16:04:30.874Z,0
2016-12-20T16:05:39.564Z,0
2016-12-20T16:06:48.262Z,0
2016-12-20T16:07:56.957Z,0
2016-12-20T16:09:05.647Z,0
2016-12-20T16:10:14.332Z,0
2016-12-20T16:11:23.336Z,0
2016-12-20T16:12:32.026Z,0
2016-12-20T16:13:40.718Z,0
2016-12-20T16:14:49.415Z,0
2016-12-20T16:15:58.110Z,0
2016-12-20T16:17:06.800Z,0
2016-12-20T16:18:15.487Z,0
2016-12-20T16:19:24.183Z,0
2016-12-20T16:20:32.902Z,0